createdAt,value
2023-03-07T00:00:05.685Z,978.94
2023-03-07T00:01:05.706Z,979.01
2023-03-07T00:02:05.672Z,979.02
2023-03-07T00:03:05.723Z,978.98
2023-03-07T00:04:05.713Z,978.98
2023-03-07T00:05:05.701Z,978.98
2023-03-07T00:06:05.690Z,978.98
2023-03-07T00:07:05.690Z,978.96
2023-03-07T00:08:05.750Z,979.03
2023-03-07T00:09:05.701Z,978.99
2023-03-07T00:10:05.693Z,978.91
2023-03-07T00:11:05.736Z,979.07
2023-03-07T00:12:05.713Z,978.99
2023-03-07T00:13:05.701Z,978.97
2023-03-07T00:14:05.689Z,978.92
2023-03-07T00:15:05.704Z,978.98
2023-03-07T00:16:05.750Z,978.91
2023-03-07T00:17:05.743Z,978.99
2023-03-07T00:18:05.744Z,978.89
2023-03-07T00:19:05.718Z,979.02
2023-03-07T00:20:05.747Z,978.96
2023-03-07T00:21:05.724Z,978.95
2023-03-07T00:22:05.708Z,978.89
2023-03-07T00:23:05.743Z,978.89
2023-03-07T00:24:05.751Z,978.96
2023-03-07T00:25:05.743Z,978.88
2023-03-07T00:26:05.792Z,978.83
2023-03-07T00:27:05.774Z,978.90
2023-03-07T00:28:05.699Z,978.88
2023-03-07T00:29:05.771Z,978.82
2023-03-07T00:30:05.711Z,978.74
2023-03-07T00:31:05.772Z,978.82
2023-03-07T00:32:05.765Z,978.87
2023-03-07T00:33:05.744Z,978.84
2023-03-07T00:34:05.728Z,978.85
2023-03-07T00:35:05.696Z,978.77
2023-03-07T00:36:05.768Z,978.88
2023-03-07T00:37:05.714Z,978.76
2023-03-07T00:38:05.713Z,978.70
2023-03-07T00:39:05.713Z,978.74
2023-03-07T00:40:05.695Z,978.64
2023-03-07T00:41:05.715Z,978.70
2023-03-07T00:42:05.734Z,978.68
2023-03-07T00:43:05.734Z,978.63
2023-03-07T00:44:05.719Z,978.65
2023-03-07T00:45:05.708Z,978.77
2023-03-07T00:46:05.832Z,978.77
2023-03-07T00:47:05.719Z,978.64
2023-03-07T00:48:05.735Z,978.57
2023-03-07T00:49:05.736Z,978.60
2023-03-07T00:50:05.717Z,978.61
2023-03-07T00:51:05.721Z,978.63
2023-03-07T00:52:05.706Z,978.61
2023-03-07T00:53:05.743Z,978.58
2023-03-07T00:54:05.726Z,978.56
2023-03-07T00:55:05.727Z,978.53
2023-03-07T00:56:05.758Z,978.52
2023-03-07T00:57:05.721Z,978.52
2023-03-07T00:58:05.725Z,978.53
2023-03-07T00:59:05.746Z,978.49
2023-03-07T01:00:05.759Z,978.51
2023-03-07T01:01:05.863Z,978.62
2023-03-07T01:02:05.725Z,978.51
2023-03-07T01:03:05.718Z,978.48
2023-03-07T01:04:05.772Z,978.54
2023-03-07T01:05:05.716Z,978.47
2023-03-07T01:06:05.749Z,978.46
2023-03-07T01:07:05.768Z,978.51
2023-03-07T01:08:05.726Z,978.45
2023-03-07T01:09:05.764Z,978.51
2023-03-07T01:10:05.746Z,978.51
2023-03-07T01:11:05.771Z,978.41
2023-03-07T01:12:05.777Z,978.40
2023-03-07T01:13:05.773Z,978.34
2023-03-07T01:14:05.731Z,978.36
2023-03-07T01:15:05.739Z,978.37
2023-03-07T01:16:05.745Z,978.38
2023-03-07T01:17:05.762Z,978.38
2023-03-07T01:18:05.750Z,978.36
2023-03-07T01:19:05.789Z,978.32
2023-03-07T01:20:05.744Z,978.33
2023-03-07T01:21:05.772Z,978.25
2023-03-07T01:22:05.763Z,978.23
2023-03-07T01:23:05.780Z,978.29
2023-03-07T01:24:05.750Z,978.21
2023-03-07T01:25:05.775Z,978.19
2023-03-07T01:26:05.771Z,978.25
2023-03-07T01:27:05.772Z,978.25
2023-03-07T01:28:05.810Z,978.19
2023-03-07T01:29:05.825Z,978.13
2023-03-07T01:30:05.819Z,978.16
2023-03-07T01:31:05.830Z,978.13
2023-03-07T01:32:06.016Z,978.12
2023-03-07T01:33:05.864Z,978.11
2023-03-07T01:34:05.858Z,978.13
2023-03-07T01:35:05.908Z,978.00
2023-03-07T01:36:06.002Z,978.01
2023-03-07T01:37:05.929Z,978.02
2023-03-07T01:38:05.913Z,978.06
2023-03-07T01:39:05.947Z,978.02
2023-03-07T01:40:05.964Z,978.07
2023-03-07T01:41:05.943Z,978.06
2023-03-07T01:42:05.968Z,978.03
2023-03-07T01:43:05.995Z,978.08
2023-03-07T01:44:05.995Z,977.93
2023-03-07T01:45:05.994Z,978.05
2023-03-07T01:46:06.060Z,977.99
2023-03-07T01:47:06.031Z,977.96
2023-03-07T01:48:06.026Z,977.97
2023-03-07T01:49:06.072Z,977.95
2023-03-07T01:50:06.082Z,977.95
2023-03-07T01:51:06.089Z,978.00
2023-03-07T01:52:06.082Z,977.90
2023-03-07T01:53:06.092Z,977.93
2023-03-07T01:54:06.142Z,977.92
2023-03-07T01:55:06.126Z,977.95
2023-03-07T01:56:06.153Z,977.93
2023-03-07T01:57:06.144Z,977.92
2023-03-07T01:58:06.144Z,977.89
2023-03-07T01:59:06.156Z,977.89
2023-03-07T02:00:06.207Z,977.75
2023-03-07T02:01:06.227Z,977.78
2023-03-07T02:02:06.215Z,977.77
2023-03-07T02:03:06.203Z,977.75
2023-03-07T02:04:06.291Z,977.77
2023-03-07T02:05:06.281Z,977.83
2023-03-07T02:06:06.242Z,977.75
2023-03-07T02:07:06.348Z,977.77
2023-03-07T02:08:06.256Z,977.72
2023-03-07T02:09:06.319Z,977.77
2023-03-07T02:10:06.343Z,977.73
2023-03-07T02:11:06.349Z,977.70
2023-03-07T02:12:06.336Z,977.65
2023-03-07T02:13:06.395Z,977.65
2023-03-07T02:14:06.352Z,977.69
2023-03-07T02:15:06.391Z,977.63
2023-03-07T02:16:06.475Z,977.66
2023-03-07T02:17:06.429Z,977.62
2023-03-07T02:18:06.380Z,977.58
2023-03-07T02:19:06.396Z,977.61
2023-03-07T02:20:06.418Z,977.67
2023-03-07T02:21:06.409Z,977.60
2023-03-07T02:22:06.416Z,977.59
2023-03-07T02:23:06.810Z,977.50
2023-03-07T02:24:06.439Z,977.61
2023-03-07T02:25:06.470Z,977.55
2023-03-07T02:26:06.494Z,977.58
2023-03-07T02:27:06.524Z,977.47
2023-03-07T02:28:06.497Z,977.43
2023-03-07T02:29:06.500Z,977.50
2023-03-07T02:30:06.569Z,977.50
2023-03-07T02:31:06.607Z,977.47
2023-03-07T02:32:06.607Z,977.39
2023-03-07T02:33:06.577Z,977.40
2023-03-07T02:34:06.600Z,977.39
2023-03-07T02:35:06.594Z,977.39
2023-03-07T02:36:06.578Z,977.38
2023-03-07T02:37:06.651Z,977.35
2023-03-07T02:38:06.635Z,977.28
2023-03-07T02:39:06.640Z,977.34
2023-03-07T02:40:06.637Z,977.26
2023-03-07T02:41:06.703Z,977.25
2023-03-07T02:42:06.701Z,977.20
2023-03-07T02:43:06.681Z,977.20
2023-03-07T02:44:06.692Z,977.24
2023-03-07T02:45:06.699Z,977.21
2023-03-07T02:46:06.766Z,977.23
2023-03-07T02:47:06.759Z,977.27
2023-03-07T02:48:06.844Z,977.19
2023-03-07T02:49:06.759Z,977.16
2023-03-07T02:50:06.756Z,977.18
2023-03-07T02:51:06.780Z,977.16
2023-03-07T02:52:06.796Z,977.17
2023-03-07T02:53:06.805Z,977.10
2023-03-07T02:54:06.844Z,977.15
2023-03-07T02:55:06.827Z,977.14
2023-03-07T02:56:06.851Z,977.10
2023-03-07T02:57:06.840Z,977.09
2023-03-07T02:58:06.866Z,977.08
2023-03-07T02:59:06.865Z,977.12
2023-03-07T03:00:06.875Z,977.02
2023-03-07T03:01:06.899Z,977.06
2023-03-07T03:02:06.908Z,977.10
2023-03-07T03:03:06.936Z,977.01
2023-03-07T03:04:06.937Z,977.00
2023-03-07T03:05:06.938Z,977.02
2023-03-07T03:06:06.942Z,977.00
2023-03-07T03:07:06.962Z,977.10
2023-03-07T03:08:06.980Z,977.09
2023-03-07T03:09:07.000Z,977.04
2023-03-07T03:10:07.062Z,977.02
2023-03-07T03:11:07.004Z,977.07
2023-03-07T03:12:07.029Z,977.01
2023-03-07T03:13:07.008Z,977.07
2023-03-07T03:14:07.053Z,977.11
2023-03-07T03:15:07.101Z,977.10
2023-03-07T03:16:07.144Z,977.07
2023-03-07T03:17:07.078Z,977.09
2023-03-07T03:18:07.111Z,977.06
2023-03-07T03:19:07.110Z,976.96
2023-03-07T03:20:07.130Z,977.06
2023-03-07T03:21:07.173Z,977.09
2023-03-07T03:22:07.124Z,976.97
2023-03-07T03:23:07.155Z,976.98
2023-03-07T03:24:07.158Z,977.01
2023-03-07T03:25:07.168Z,976.97
2023-03-07T03:26:07.218Z,976.89
2023-03-07T03:27:07.221Z,977.02
2023-03-07T03:28:07.234Z,976.91
2023-03-07T03:29:07.228Z,976.98
2023-03-07T03:30:07.238Z,977.01
2023-03-07T03:31:07.339Z,976.95
2023-03-07T03:32:07.322Z,976.92
2023-03-07T03:33:07.284Z,976.91
2023-03-07T03:34:07.293Z,976.90
2023-03-07T03:35:07.323Z,976.92
2023-03-07T03:36:07.374Z,976.90
2023-03-07T03:37:07.324Z,976.93
2023-03-07T03:38:07.399Z,976.87
2023-03-07T03:39:07.343Z,976.90
2023-03-07T03:40:07.373Z,976.86
2023-03-07T03:41:07.371Z,976.83
2023-03-07T03:42:07.398Z,976.85
2023-03-07T03:43:07.399Z,976.83
2023-03-07T03:44:07.421Z,976.77
2023-03-07T03:45:07.412Z,976.76
2023-03-07T03:46:07.420Z,976.72
2023-03-07T03:47:07.470Z,976.79
2023-03-07T03:48:07.432Z,976.83
2023-03-07T03:49:07.463Z,976.76
2023-03-07T03:50:07.471Z,976.79
2023-03-07T03:51:07.500Z,976.78
2023-03-07T03:52:07.522Z,976.71
2023-03-07T03:53:07.517Z,976.70
2023-03-07T03:54:07.561Z,976.68
2023-03-07T03:55:07.542Z,976.72
2023-03-07T03:56:07.609Z,976.74
2023-03-07T03:57:07.560Z,976.70
2023-03-07T03:58:07.595Z,976.71
2023-03-07T03:59:07.628Z,976.72
2023-03-07T04:00:07.609Z,976.69
2023-03-07T04:01:07.670Z,976.68
2023-03-07T04:02:07.793Z,976.55
2023-03-07T04:03:07.787Z,976.64
2023-03-07T04:04:07.690Z,976.73
2023-03-07T04:05:07.654Z,976.67
2023-03-07T04:06:07.671Z,976.71
2023-03-07T04:07:07.715Z,976.70
2023-03-07T04:08:07.736Z,976.61
2023-03-07T04:09:07.727Z,976.65
2023-03-07T04:10:07.744Z,976.68
2023-03-07T04:11:07.810Z,976.63
2023-03-07T04:12:07.761Z,976.60
2023-03-07T04:13:07.750Z,976.50
2023-03-07T04:14:07.769Z,976.63
2023-03-07T04:15:07.803Z,976.56
2023-03-07T04:16:07.860Z,976.52
2023-03-07T04:17:07.794Z,976.49
2023-03-07T04:18:07.820Z,976.58
2023-03-07T04:19:07.836Z,976.51
2023-03-07T04:20:07.837Z,976.55
2023-03-07T04:21:07.893Z,976.47
2023-03-07T04:22:09.124Z,976.52
2023-03-07T04:23:07.975Z,976.60
2023-03-07T04:24:07.909Z,976.58
2023-03-07T04:25:07.894Z,976.56
2023-03-07T04:26:07.974Z,976.47
2023-03-07T04:27:07.915Z,976.48
2023-03-07T04:28:07.953Z,976.47
2023-03-07T04:29:07.976Z,976.54
2023-03-07T04:30:07.928Z,976.45
2023-03-07T04:31:08.242Z,976.43
2023-03-07T04:32:08.165Z,976.47
2023-03-07T04:33:08.009Z,976.41
2023-03-07T04:34:08.132Z,976.48
2023-03-07T04:35:08.003Z,976.45
2023-03-07T04:36:08.167Z,976.48
2023-03-07T04:38:08.290Z,976.40
2023-03-07T04:39:08.053Z,976.41
2023-03-07T04:40:08.122Z,976.36
2023-03-07T04:41:08.017Z,976.39
2023-03-07T04:42:08.066Z,976.35
2023-03-07T04:43:08.225Z,976.38
2023-03-07T04:44:08.082Z,976.39
2023-03-07T04:45:08.065Z,976.27
2023-03-07T04:46:08.064Z,976.31
2023-03-07T04:47:08.052Z,976.34
2023-03-07T04:48:08.048Z,976.23
2023-03-07T04:49:08.068Z,976.24
2023-03-07T04:50:08.040Z,976.32
2023-03-07T04:51:08.045Z,976.34
2023-03-07T04:52:08.070Z,976.31
2023-03-07T04:53:08.050Z,976.26
2023-03-07T04:54:08.052Z,976.18
2023-03-07T04:55:08.034Z,976.20
2023-03-07T04:56:08.041Z,976.15
2023-03-07T04:57:08.060Z,976.14
2023-03-07T04:58:08.088Z,976.17
2023-03-07T04:59:08.049Z,976.19
2023-03-07T05:00:08.080Z,976.05
2023-03-07T05:01:08.098Z,976.05
2023-03-07T05:02:08.056Z,976.13
2023-03-07T05:03:08.067Z,976.01
2023-03-07T05:04:08.086Z,976.05
2023-03-07T05:05:08.088Z,976.06
2023-03-07T05:06:08.057Z,975.98
2023-03-07T05:07:08.063Z,976.04
2023-03-07T05:08:08.062Z,976.12
2023-03-07T05:09:08.067Z,976.06
2023-03-07T05:10:08.077Z,976.01
2023-03-07T05:11:08.080Z,976.03
2023-03-07T05:12:08.071Z,976.13
2023-03-07T05:13:08.051Z,976.02
2023-03-07T05:14:08.069Z,976.05
2023-03-07T05:15:08.071Z,976.04
2023-03-07T05:16:08.099Z,975.98
2023-03-07T05:17:08.072Z,976.10
2023-03-07T05:18:08.073Z,975.98
2023-03-07T05:19:08.045Z,976.03
2023-03-07T05:20:08.095Z,976.04
2023-03-07T05:21:08.074Z,975.97
2023-03-07T05:22:08.081Z,976.00
2023-03-07T05:23:08.063Z,975.99
2023-03-07T05:24:08.070Z,976.00
2023-03-07T05:25:08.102Z,975.97
2023-03-07T05:26:08.118Z,975.95
2023-03-07T05:27:08.086Z,975.99
2023-03-07T05:28:08.063Z,975.89
2023-03-07T05:29:08.087Z,975.89
2023-03-07T05:30:08.077Z,975.89
2023-03-07T05:31:08.097Z,975.87
2023-03-07T05:32:08.084Z,975.99
2023-03-07T05:33:08.095Z,975.93
2023-03-07T05:34:08.089Z,975.89
2023-03-07T05:35:08.094Z,975.88
2023-03-07T05:36:08.114Z,975.82
2023-03-07T05:37:08.103Z,975.88
2023-03-07T05:38:08.106Z,975.86
2023-03-07T05:39:08.079Z,975.91
2023-03-07T05:40:08.075Z,975.82
2023-03-07T05:41:08.094Z,975.89
2023-03-07T05:42:08.089Z,975.81
2023-03-07T05:43:08.101Z,975.84
2023-03-07T05:44:08.102Z,975.79
2023-03-07T05:45:08.080Z,975.88
2023-03-07T05:46:08.119Z,975.79
2023-03-07T05:47:08.104Z,975.80
2023-03-07T05:48:08.090Z,975.79
2023-03-07T05:49:08.112Z,975.79
2023-03-07T05:50:08.107Z,975.84
2023-03-07T05:51:08.080Z,975.77
2023-03-07T05:52:08.084Z,975.79
2023-03-07T05:53:08.095Z,975.81
2023-03-07T05:54:08.148Z,975.69
2023-03-07T05:55:08.120Z,975.81
2023-03-07T05:56:08.118Z,975.79
2023-03-07T05:57:08.112Z,975.77
2023-03-07T05:58:08.117Z,975.74
2023-03-07T05:59:08.122Z,975.79
2023-03-07T06:00:08.126Z,975.77
2023-03-07T06:01:08.117Z,975.71
2023-03-07T06:02:08.107Z,975.79
2023-03-07T06:03:08.109Z,975.79
2023-03-07T06:04:08.149Z,975.82
2023-03-07T06:05:08.108Z,975.69
2023-03-07T06:06:08.112Z,975.68
2023-03-07T06:07:08.129Z,975.74
2023-03-07T06:08:08.130Z,975.72
2023-03-07T06:09:08.142Z,975.77
2023-03-07T06:10:08.127Z,975.77
2023-03-07T06:11:08.141Z,975.81
2023-03-07T06:12:08.122Z,975.76
2023-03-07T06:13:08.142Z,975.74
2023-03-07T06:14:08.151Z,975.68
2023-03-07T06:15:08.130Z,975.70
2023-03-07T06:16:08.254Z,975.73
2023-03-07T06:17:08.148Z,975.74
2023-03-07T06:18:08.120Z,975.74
2023-03-07T06:19:08.166Z,975.73
2023-03-07T06:20:08.145Z,975.70
2023-03-07T06:21:08.130Z,975.75
2023-03-07T06:22:08.147Z,975.71
2023-03-07T06:23:08.119Z,975.73
2023-03-07T06:24:08.201Z,975.71
2023-03-07T06:25:08.162Z,975.75
2023-03-07T06:26:08.190Z,975.71
2023-03-07T06:27:08.129Z,975.66
2023-03-07T06:28:08.161Z,975.75
2023-03-07T06:29:08.147Z,975.71
2023-03-07T06:30:08.183Z,975.72
2023-03-07T06:31:08.198Z,975.75
2023-03-07T06:32:08.219Z,975.68
2023-03-07T06:33:08.165Z,975.72
2023-03-07T06:34:08.160Z,975.72
2023-03-07T06:35:08.160Z,975.70
2023-03-07T06:36:08.192Z,975.72
2023-03-07T06:37:08.124Z,975.78
2023-03-07T06:38:08.125Z,975.78
2023-03-07T06:39:08.149Z,975.76
2023-03-07T06:40:08.167Z,975.76
2023-03-07T06:41:08.145Z,975.71
2023-03-07T06:42:08.157Z,975.80
2023-03-07T06:43:08.180Z,975.78
2023-03-07T06:44:08.137Z,975.80
2023-03-07T06:45:08.142Z,975.78
2023-03-07T06:46:08.280Z,975.72
2023-03-07T06:47:08.151Z,975.74
2023-03-07T06:48:08.168Z,975.68
2023-03-07T06:49:08.165Z,975.73
2023-03-07T06:50:08.172Z,975.76
2023-03-07T06:51:08.550Z,975.73
2023-03-07T06:52:08.152Z,975.71
2023-03-07T06:53:08.158Z,975.65
2023-03-07T06:54:08.162Z,975.73
2023-03-07T06:55:08.162Z,975.69
2023-03-07T06:56:08.225Z,975.75
2023-03-07T06:57:08.173Z,975.71
2023-03-07T06:58:08.159Z,975.72
2023-03-07T06:59:08.166Z,975.75
2023-03-07T07:00:08.275Z,975.67
2023-03-07T07:01:08.192Z,975.71
2023-03-07T07:02:08.276Z,975.78
2023-03-07T07:03:08.280Z,975.75
2023-03-07T07:04:08.169Z,975.73
2023-03-07T07:05:08.153Z,975.70
2023-03-07T07:06:08.185Z,975.70
2023-03-07T07:07:08.189Z,975.77
2023-03-07T07:08:08.192Z,975.74
2023-03-07T07:09:08.196Z,975.77
2023-03-07T07:10:08.163Z,975.75
2023-03-07T07:11:08.219Z,975.62
2023-03-07T07:12:08.220Z,975.68
2023-03-07T07:13:08.184Z,975.70
2023-03-07T07:14:08.182Z,975.65
2023-03-07T07:15:08.185Z,975.65
2023-03-07T07:16:08.220Z,975.56
2023-03-07T07:17:08.215Z,975.63
2023-03-07T07:18:10.421Z,975.65
2023-03-07T07:19:08.219Z,975.70
2023-03-07T07:20:08.223Z,975.70
2023-03-07T07:21:08.234Z,975.65
2023-03-07T07:22:08.262Z,975.71
2023-03-07T07:23:08.241Z,975.63
2023-03-07T07:24:08.227Z,975.66
2023-03-07T07:25:08.235Z,975.73
2023-03-07T07:26:08.226Z,975.64
2023-03-07T07:27:08.258Z,975.73
2023-03-07T07:28:08.274Z,975.71
2023-03-07T07:29:08.239Z,975.67
2023-03-07T07:30:08.237Z,975.75
2023-03-07T07:31:08.228Z,975.69
2023-03-07T07:32:08.450Z,975.66
2023-03-07T07:33:08.363Z,975.72
2023-03-07T07:34:08.230Z,975.67
2023-03-07T07:35:08.267Z,975.73
2023-03-07T07:36:08.288Z,975.76
2023-03-07T07:37:08.253Z,975.71
2023-03-07T07:38:08.268Z,975.70
2023-03-07T07:39:08.251Z,975.72
2023-03-07T07:40:08.268Z,975.67
2023-03-07T07:41:08.263Z,975.66
2023-03-07T07:42:08.249Z,975.65
2023-03-07T07:43:08.324Z,975.62
2023-03-07T07:44:08.268Z,975.66
2023-03-07T07:45:08.248Z,975.66
2023-03-07T07:46:08.322Z,975.71
2023-03-07T07:47:08.274Z,975.71
2023-03-07T07:48:08.288Z,975.65
2023-03-07T07:49:08.283Z,975.67
2023-03-07T07:50:08.296Z,975.57
2023-03-07T07:51:08.300Z,975.67
2023-03-07T07:52:08.308Z,975.65
2023-03-07T07:53:08.287Z,975.62
2023-03-07T07:54:08.438Z,975.70
2023-03-07T07:55:08.313Z,975.63
2023-03-07T07:56:08.286Z,975.54
2023-03-07T07:57:08.295Z,975.64
2023-03-07T07:58:08.339Z,975.62
2023-03-07T07:59:08.326Z,975.77
2023-03-07T08:00:08.324Z,975.68
2023-03-07T08:01:08.302Z,975.62
2023-03-07T08:02:08.402Z,975.59
2023-03-07T08:03:08.330Z,975.58
2023-03-07T08:04:08.319Z,975.67
2023-03-07T08:05:08.334Z,975.62
2023-03-07T08:06:08.331Z,975.56
2023-03-07T08:07:08.290Z,975.56
2023-03-07T08:08:08.342Z,975.57
2023-03-07T08:09:08.340Z,975.61
2023-03-07T08:10:08.352Z,975.62
2023-03-07T08:11:08.341Z,975.58
2023-03-07T08:12:08.328Z,975.57
2023-03-07T08:13:08.341Z,975.62
2023-03-07T08:14:08.329Z,975.56
2023-03-07T08:15:08.323Z,975.61
2023-03-07T08:16:08.451Z,975.60
2023-03-07T08:17:08.369Z,975.50
2023-03-07T08:18:08.311Z,975.48
2023-03-07T08:19:08.347Z,975.54
2023-03-07T08:20:08.355Z,975.45
2023-03-07T08:21:08.344Z,975.45
2023-03-07T08:22:08.337Z,975.50
2023-03-07T08:23:08.365Z,975.40
2023-03-07T08:24:08.347Z,975.52
2023-03-07T08:25:08.370Z,975.49
2023-03-07T08:26:08.323Z,975.45
2023-03-07T08:27:08.332Z,975.43
2023-03-07T08:28:08.322Z,975.40
2023-03-07T08:29:08.349Z,975.38
2023-03-07T08:30:08.349Z,975.42
2023-03-07T08:31:08.412Z,975.40
2023-03-07T08:32:09.504Z,975.44
2023-03-07T08:33:08.353Z,975.39
2023-03-07T08:34:08.340Z,975.41
2023-03-07T08:35:08.385Z,975.45
2023-03-07T08:36:08.391Z,975.40
2023-03-07T08:37:08.358Z,975.36
2023-03-07T08:38:08.371Z,975.38
2023-03-07T08:39:08.391Z,975.34
2023-03-07T08:40:08.326Z,975.35
2023-03-07T08:41:08.373Z,975.36
2023-03-07T08:42:08.403Z,975.40
2023-03-07T08:43:08.342Z,975.33
2023-03-07T08:44:08.351Z,975.33
2023-03-07T08:45:08.372Z,975.37
2023-03-07T08:46:08.383Z,975.33
2023-03-07T08:47:08.380Z,975.27
2023-03-07T08:48:08.338Z,975.29
2023-03-07T08:49:08.365Z,975.27
2023-03-07T08:50:08.375Z,975.33
2023-03-07T08:51:08.410Z,975.26
2023-03-07T08:52:08.371Z,975.28
2023-03-07T08:53:08.344Z,975.31
2023-03-07T08:54:08.330Z,975.34
2023-03-07T08:55:08.387Z,975.34
2023-03-07T08:56:08.402Z,975.35
2023-03-07T08:57:08.377Z,975.37
2023-03-07T08:58:08.371Z,975.35
2023-03-07T08:59:08.382Z,975.33
2023-03-07T09:00:08.357Z,975.39
2023-03-07T09:01:08.399Z,975.34
2023-03-07T09:02:08.391Z,975.21
2023-03-07T09:03:08.383Z,975.27
2023-03-07T09:04:08.394Z,975.28
2023-03-07T09:05:08.559Z,975.28
2023-03-07T09:06:08.378Z,975.22
2023-03-07T09:07:08.410Z,975.30
2023-03-07T09:08:08.365Z,975.29
2023-03-07T09:09:08.403Z,975.23
2023-03-07T09:10:08.387Z,975.25
2023-03-07T09:11:08.391Z,975.21
2023-03-07T09:12:08.419Z,975.22
2023-03-07T09:13:08.389Z,975.21
2023-03-07T09:14:08.353Z,975.26
2023-03-07T09:15:08.377Z,975.26
2023-03-07T09:16:08.403Z,975.22
2023-03-07T09:17:08.399Z,975.29
2023-03-07T09:18:08.376Z,975.27
2023-03-07T09:19:08.401Z,975.28
2023-03-07T09:20:08.369Z,975.28
2023-03-07T09:21:08.382Z,975.37
2023-03-07T09:22:08.371Z,975.34
2023-03-07T09:23:08.405Z,975.35
2023-03-07T09:24:08.384Z,975.35
2023-03-07T09:25:08.407Z,975.34
2023-03-07T09:26:08.389Z,975.35
2023-03-07T09:27:08.379Z,975.31
2023-03-07T09:28:08.386Z,975.32
2023-03-07T09:29:08.385Z,975.35
2023-03-07T09:30:08.427Z,975.25
2023-03-07T09:31:08.456Z,975.23
2023-03-07T09:32:08.437Z,975.34
2023-03-07T09:33:08.409Z,975.33
2023-03-07T09:34:08.418Z,975.20
2023-03-07T09:35:08.410Z,975.33
2023-03-07T09:36:08.493Z,975.22
2023-03-07T09:37:08.395Z,975.19
2023-03-07T09:38:08.451Z,975.23
2023-03-07T09:39:08.423Z,975.14
2023-03-07T09:40:08.436Z,975.13
2023-03-07T09:41:08.416Z,975.12
2023-03-07T09:42:08.416Z,975.21
2023-03-07T09:43:08.439Z,975.15
2023-03-07T09:44:08.451Z,975.16
2023-03-07T09:45:08.412Z,975.17
2023-03-07T09:46:08.531Z,975.17
2023-03-07T09:47:08.427Z,975.16
2023-03-07T09:48:08.388Z,975.16
2023-03-07T09:49:08.429Z,975.14
2023-03-07T09:50:08.402Z,975.16
2023-03-07T09:51:11.914Z,975.16
2023-03-07T09:52:10.234Z,975.18
2023-03-07T09:53:08.452Z,975.18
2023-03-07T09:54:08.437Z,975.20
2023-03-07T09:55:08.438Z,975.20
2023-03-07T09:56:08.441Z,975.15
2023-03-07T09:57:08.453Z,975.21
2023-03-07T09:58:08.399Z,975.11
2023-03-07T09:59:21.719Z,975.18
2023-03-07T10:00:08.444Z,975.18
2023-03-07T10:01:08.447Z,975.15
2023-03-07T10:02:08.444Z,975.09
2023-03-07T10:03:08.469Z,975.13
2023-03-07T10:04:08.420Z,975.07
2023-03-07T10:05:08.446Z,975.10
2023-03-07T10:06:08.465Z,975.07
2023-03-07T10:07:08.409Z,974.98
2023-03-07T10:08:08.448Z,975.08
2023-03-07T10:09:08.534Z,975.05
2023-03-07T10:10:08.448Z,975.13
2023-03-07T10:11:08.473Z,975.11
2023-03-07T10:12:08.456Z,975.14
2023-03-07T10:13:08.451Z,975.12
2023-03-07T10:14:08.460Z,975.14
2023-03-07T10:15:08.472Z,975.18
2023-03-07T10:16:08.468Z,975.21
2023-03-07T10:17:08.631Z,975.27
2023-03-07T10:18:08.474Z,975.15
2023-03-07T10:19:08.460Z,975.22
2023-03-07T10:20:08.437Z,975.10
2023-03-07T10:21:08.467Z,975.06
2023-03-07T10:22:08.459Z,975.09
2023-03-07T10:23:08.431Z,975.13
2023-03-07T10:24:08.481Z,975.13
2023-03-07T10:25:08.434Z,975.16
2023-03-07T10:26:08.425Z,975.09
2023-03-07T10:27:08.444Z,975.06
2023-03-07T10:28:08.442Z,974.99
2023-03-07T10:29:08.447Z,975.05
2023-03-07T10:30:08.449Z,975.14
2023-03-07T10:31:08.435Z,975.10
2023-03-07T10:32:08.520Z,975.10
2023-03-07T10:33:08.431Z,975.17
2023-03-07T10:34:08.426Z,975.15
2023-03-07T10:35:08.472Z,975.08
2023-03-07T10:36:08.482Z,975.13
2023-03-07T10:37:09.456Z,975.11
2023-03-07T10:38:08.433Z,975.13
2023-03-07T10:39:08.454Z,975.00
2023-03-07T10:40:08.444Z,975.01
2023-03-07T10:41:08.453Z,975.10
2023-03-07T10:42:08.448Z,975.04
2023-03-07T10:43:08.465Z,975.04
2023-03-07T10:44:08.461Z,975.11
2023-03-07T10:45:08.458Z,975.00
2023-03-07T10:46:22.389Z,974.96
2023-03-07T10:47:08.488Z,974.93
2023-03-07T10:48:08.481Z,974.98
2023-03-07T10:49:10.474Z,974.98
2023-03-07T10:50:08.460Z,974.90
2023-03-07T10:51:08.482Z,974.80
2023-03-07T10:52:08.452Z,974.85
2023-03-07T10:53:08.444Z,974.92
2023-03-07T10:54:08.467Z,974.78
2023-03-07T10:55:08.463Z,974.92
2023-03-07T10:56:08.461Z,974.78
2023-03-07T10:57:08.496Z,974.86
2023-03-07T10:58:08.482Z,974.77
2023-03-07T10:59:08.452Z,974.75
2023-03-07T11:00:08.490Z,974.72
2023-03-07T11:01:08.621Z,974.68
2023-03-07T11:02:08.450Z,974.64
2023-03-07T11:03:08.453Z,974.65
2023-03-07T11:04:08.464Z,974.58
2023-03-07T11:05:08.465Z,974.59
2023-03-07T11:06:08.517Z,974.63
2023-03-07T11:07:08.456Z,974.58
2023-03-07T11:08:08.474Z,974.89
2023-03-07T11:09:08.462Z,974.59
2023-03-07T11:10:08.508Z,974.55
2023-03-07T11:11:08.495Z,974.49
2023-03-07T11:12:08.475Z,974.56
2023-03-07T11:13:08.471Z,974.50
2023-03-07T11:14:08.473Z,974.49
2023-03-07T11:15:08.478Z,974.46
2023-03-07T11:16:11.568Z,974.49
2023-03-07T11:17:08.505Z,974.47
2023-03-07T11:18:08.523Z,974.44
2023-03-07T11:19:08.481Z,974.44
2023-03-07T11:20:08.484Z,974.36
2023-03-07T11:21:08.492Z,974.45
2023-03-07T11:22:08.498Z,974.45
2023-03-07T11:23:08.500Z,974.37
2023-03-07T11:24:08.564Z,974.36
2023-03-07T11:25:08.497Z,974.46
2023-03-07T11:26:08.504Z,974.41
2023-03-07T11:27:08.528Z,974.39
2023-03-07T11:28:08.555Z,974.40
2023-03-07T11:29:08.491Z,974.44
2023-03-07T11:30:08.493Z,974.37
2023-03-07T11:31:08.544Z,974.41
2023-03-07T11:32:08.560Z,974.35
2023-03-07T11:33:08.530Z,974.37
2023-03-07T11:34:08.527Z,974.40
2023-03-07T11:35:08.548Z,974.37
2023-03-07T11:36:08.561Z,974.46
2023-03-07T11:37:08.508Z,974.37
2023-03-07T11:38:08.510Z,974.37
2023-03-07T11:39:08.516Z,974.37
2023-03-07T11:40:08.546Z,974.33
2023-03-07T11:41:08.555Z,974.34
2023-03-07T11:42:08.540Z,974.45
2023-03-07T11:43:08.534Z,974.29
2023-03-07T11:44:08.537Z,974.23
2023-03-07T11:45:08.533Z,974.34
2023-03-07T11:46:08.535Z,974.31
2023-03-07T11:47:08.531Z,974.29
2023-03-07T11:48:08.526Z,974.34
2023-03-07T11:49:08.534Z,974.28
2023-03-07T11:50:08.546Z,974.27
2023-03-07T11:51:08.526Z,974.39
2023-03-07T11:52:08.574Z,974.38
2023-03-07T11:53:08.541Z,974.39
2023-03-07T11:54:08.550Z,974.36
2023-03-07T11:55:08.545Z,974.24
2023-03-07T11:56:08.543Z,974.30
2023-03-07T11:57:08.559Z,974.30
2023-03-07T11:58:08.530Z,974.29
2023-03-07T11:59:08.540Z,974.27
2023-03-07T12:00:08.582Z,974.20
2023-03-07T12:01:10.806Z,974.33
2023-03-07T12:02:08.536Z,974.27
2023-03-07T12:03:08.586Z,974.27
2023-03-07T12:04:08.533Z,974.31
2023-03-07T12:05:08.574Z,974.33
2023-03-07T12:06:08.595Z,974.33
2023-03-07T12:07:08.537Z,974.35
2023-03-07T12:08:08.539Z,974.24
2023-03-07T12:09:08.553Z,974.34
2023-03-07T12:10:08.576Z,974.23
2023-03-07T12:11:08.567Z,974.31
2023-03-07T12:12:08.570Z,974.25
2023-03-07T12:13:08.542Z,974.21
2023-03-07T12:14:08.554Z,974.18
2023-03-07T12:15:08.573Z,974.19
2023-03-07T12:16:08.596Z,974.17
2023-03-07T12:17:08.567Z,974.11
2023-03-07T12:18:08.552Z,974.15
2023-03-07T12:19:08.553Z,974.13
2023-03-07T12:20:08.558Z,974.08
2023-03-07T12:21:08.586Z,974.13
2023-03-07T12:22:08.581Z,974.09
2023-03-07T12:23:08.560Z,974.04
2023-03-07T12:24:08.559Z,974.06
2023-03-07T12:25:08.577Z,974.16
2023-03-07T12:26:08.554Z,974.03
2023-03-07T12:27:08.568Z,974.03
2023-03-07T12:28:08.597Z,974.18
2023-03-07T12:29:08.566Z,974.20